createdAt,value
2019-03-30T00:02:24.455Z,100.60
2019-03-30T00:04:54.855Z,98.00
2019-03-30T00:07:25.390Z,97.40
2019-03-30T00:09:55.602Z,99.80
2019-03-30T00:12:26.342Z,93.60
2019-03-30T00:14:56.789Z,97.60
2019-03-30T00:17:27.614Z,106.00
2019-03-30T00:19:58.011Z,105.00
2019-03-30T00:22:28.502Z,101.40
2019-03-30T00:24:58.960Z,103.80
2019-03-30T00:27:29.213Z,107.60
2019-03-30T00:29:59.563Z,107.20
2019-03-30T00:32:30.318Z,102.20
2019-03-30T00:35:00.947Z,103.40
2019-03-30T00:37:31.664Z,102.60
2019-03-30T00:40:01.956Z,110.40
2019-03-30T00:42:32.313Z,103.60
2019-03-30T00:45:02.754Z,114.20
2019-03-30T00:47:33.109Z,108.60
2019-03-30T00:50:03.573Z,107.60
2019-03-30T00:52:34.268Z,111.80
2019-03-30T00:55:05.166Z,111.60
2019-03-30T00:57:35.683Z,103.20
2019-03-30T01:00:06.910Z,114.00
2019-03-30T01:02:37.517Z,111.40
2019-03-30T01:05:08.444Z,121.80
2019-03-30T01:07:39.060Z,120.60
2019-03-30T01:10:09.816Z,121.00
2019-03-30T01:12:40.292Z,113.60
2019-03-30T01:15:10.930Z,121.80
2019-03-30T01:17:42.123Z,114.80
2019-03-30T01:20:12.529Z,124.40
2019-03-30T01:22:42.990Z,124.60
2019-03-30T01:25:13.585Z,125.00
2019-03-30T01:27:43.944Z,135.00
2019-03-30T01:30:22.875Z,129.20
2019-03-30T01:32:47.230Z,139.80
2019-03-30T01:35:17.745Z,147.20
2019-03-30T01:37:48.198Z,136.80
2019-03-30T01:40:18.506Z,136.40
2019-03-30T01:42:48.982Z,134.20
2019-03-30T01:45:19.359Z,129.80
2019-03-30T01:47:49.789Z,135.80
2019-03-30T01:50:20.084Z,145.40
2019-03-30T01:52:50.540Z,139.40
2019-03-30T01:55:20.781Z,143.40
2019-03-30T01:57:52.249Z,141.40
2019-03-30T02:00:22.630Z,138.20
2019-03-30T02:02:53.255Z,147.20
2019-03-30T02:05:23.659Z,154.60
2019-03-30T02:07:54.284Z,156.20
2019-03-30T02:10:44.362Z,144.20
2019-03-30T02:13:15.253Z,152.80
2019-03-30T02:15:45.677Z,161.00
2019-03-30T02:18:15.994Z,153.75
2019-03-30T02:20:47.087Z,167.25
2019-03-30T02:23:17.776Z,161.75
2019-03-30T02:25:48.371Z,165.25
2019-03-30T02:28:19.043Z,161.25
2019-03-30T02:30:49.326Z,180.00
2019-03-30T02:33:19.512Z,167.25
2019-03-30T02:35:49.843Z,171.75
2019-03-30T02:38:21.153Z,167.50
2019-03-30T02:40:51.430Z,159.50
2019-03-30T02:43:21.833Z,159.75
2019-03-30T02:45:52.264Z,167.25
2019-03-30T02:48:22.676Z,162.25
2019-03-30T02:50:53.012Z,165.00
2019-03-30T02:53:24.228Z,181.00
2019-03-30T02:55:55.500Z,181.00
2019-03-30T02:58:25.856Z,180.00
2019-03-30T03:00:56.122Z,167.75
2019-03-30T03:03:27.404Z,150.80
2019-03-30T03:05:57.958Z,163.00
2019-03-30T03:08:28.485Z,155.60
2019-03-30T03:10:58.896Z,137.80
2019-03-30T03:13:29.432Z,126.80
2019-03-30T03:16:00.700Z,134.00
2019-03-30T03:18:31.088Z,122.40
2019-03-30T03:21:08.153Z,104.20
2019-03-30T03:23:33.302Z,110.00
2019-03-30T03:26:03.783Z,118.20
2019-03-30T03:28:34.272Z,120.20
2019-03-30T03:31:04.820Z,124.60
2019-03-30T03:33:35.183Z,129.40
2019-03-30T03:36:05.688Z,131.20
2019-03-30T03:38:36.432Z,142.80
2019-03-30T03:41:06.438Z,137.40
2019-03-30T03:43:36.971Z,134.80
2019-03-30T03:46:07.313Z,130.20
2019-03-30T03:48:37.750Z,132.80
2019-03-30T03:51:25.027Z,139.00
2019-03-30T03:53:40.507Z,126.40
2019-03-30T03:56:12.296Z,131.20
2019-03-30T03:58:44.016Z,136.20
2019-03-30T04:01:16.322Z,127.00
2019-03-30T04:03:48.313Z,115.60
2019-03-30T04:06:20.327Z,104.60
2019-03-30T04:08:53.000Z,108.80
2019-03-30T04:11:24.147Z,90.60
2019-03-30T04:13:55.571Z,85.60
2019-03-30T04:16:26.243Z,76.20
2019-03-30T04:18:56.816Z,91.40
2019-03-30T04:21:42.787Z,73.40
2019-03-30T04:23:59.916Z,78.00
2019-03-30T04:26:30.345Z,72.00
2019-03-30T04:29:00.576Z,65.60
2019-03-30T04:31:30.807Z,72.60
2019-03-30T04:34:01.078Z,65.60
2019-03-30T04:36:31.602Z,67.40
2019-03-30T04:39:02.179Z,54.40
2019-03-30T04:41:33.561Z,54.40
2019-03-30T04:44:03.634Z,53.40
2019-03-30T04:46:34.058Z,50.00
2019-03-30T04:49:04.522Z,59.60
2019-03-30T04:51:34.672Z,54.00
2019-03-30T04:54:04.954Z,52.60
2019-03-30T04:56:35.447Z,53.80
2019-03-30T04:59:05.920Z,51.80
2019-03-30T05:01:36.524Z,53.80
2019-03-30T05:04:06.914Z,51.40
2019-03-30T05:06:37.271Z,55.20
2019-03-30T05:09:08.643Z,51.00
2019-03-30T05:11:38.940Z,51.20
2019-03-30T05:14:09.433Z,49.00
2019-03-30T05:16:40.299Z,48.60
2019-03-30T05:19:12.103Z,50.20
2019-03-30T05:21:42.762Z,45.60
2019-03-30T05:24:13.161Z,45.20
2019-03-30T05:26:46.513Z,45.00
2019-03-30T05:29:16.864Z,46.20
2019-03-30T05:31:47.526Z,46.00
2019-03-30T05:34:18.152Z,49.60
2019-03-30T05:36:48.553Z,47.00
2019-03-30T05:39:19.828Z,46.00
2019-03-30T05:41:50.216Z,46.80
2019-03-30T05:44:20.548Z,51.20
2019-03-30T05:46:50.917Z,48.60
2019-03-30T05:49:21.243Z,47.20
2019-03-30T05:51:51.708Z,47.60
2019-03-30T05:54:21.967Z,49.20
2019-03-30T05:56:52.308Z,48.60
2019-03-30T05:59:22.405Z,46.80
2019-03-30T06:01:53.658Z,40.00
2019-03-30T06:04:24.264Z,46.00
2019-03-30T06:06:54.539Z,48.40
2019-03-30T06:09:24.889Z,48.00
2019-03-30T06:11:55.585Z,46.60
2019-03-30T06:14:26.070Z,48.60
2019-03-30T06:16:56.816Z,46.20
2019-03-30T06:19:27.449Z,46.40
2019-03-30T06:21:57.896Z,44.60
2019-03-30T06:24:28.516Z,44.60
2019-03-30T06:26:58.775Z,43.75
2019-03-30T06:29:29.103Z,44.40
2019-03-30T06:31:59.397Z,42.40
2019-03-30T06:34:30.208Z,40.60
2019-03-30T06:37:00.522Z,43.60
2019-03-30T06:39:30.820Z,42.20
2019-03-30T06:42:01.868Z,41.40
2019-03-30T06:44:32.555Z,35.40
2019-03-30T06:47:03.734Z,33.80
2019-03-30T06:49:34.077Z,33.40
2019-03-30T06:52:04.752Z,36.20
2019-03-30T06:54:38.089Z,32.60
2019-03-30T06:57:08.829Z,38.60
2019-03-30T06:59:39.105Z,38.60
2019-03-30T07:02:10.875Z,39.00
2019-03-30T07:04:41.169Z,36.80
2019-03-30T07:07:11.618Z,39.20
2019-03-30T07:09:43.674Z,40.40
2019-03-30T07:12:14.218Z,40.80
2019-03-30T07:14:46.067Z,39.80
2019-03-30T07:17:16.459Z,41.60
2019-03-30T07:19:48.617Z,40.20
2019-03-30T07:22:18.881Z,40.80
2019-03-30T07:24:50.117Z,41.60
2019-03-30T07:27:20.812Z,40.80
2019-03-30T07:29:51.350Z,42.20
2019-03-30T07:32:24.027Z,42.20
2019-03-30T07:34:54.546Z,40.60
2019-03-30T07:37:25.042Z,41.40
2019-03-30T07:39:55.164Z,37.80
2019-03-30T07:42:25.462Z,38.20
2019-03-30T07:44:57.098Z,39.00
2019-03-30T07:47:27.517Z,38.20
2019-03-30T07:49:58.090Z,40.20
2019-03-30T07:52:28.346Z,41.40
2019-03-30T07:54:58.702Z,35.40
2019-03-30T07:57:29.148Z,36.60
2019-03-30T07:59:59.519Z,35.40
2019-03-30T08:02:29.764Z,35.60
2019-03-30T08:04:59.992Z,36.40
2019-03-30T08:07:31.760Z,35.40
2019-03-30T08:10:03.817Z,38.20
2019-03-30T08:12:34.283Z,36.80
2019-03-30T08:15:05.367Z,33.00
2019-03-30T08:17:35.847Z,34.20
2019-03-30T08:20:06.721Z,30.00
2019-03-30T08:22:37.588Z,35.80
2019-03-30T08:25:08.508Z,38.40
2019-03-30T08:27:39.272Z,37.80
2019-03-30T08:30:09.658Z,35.60
2019-03-30T08:32:41.205Z,35.20
2019-03-30T08:35:13.807Z,36.20
2019-03-30T08:37:44.616Z,36.80
2019-03-30T08:40:15.120Z,33.00
2019-03-30T08:42:45.953Z,34.40
2019-03-30T08:45:17.218Z,32.00
2019-03-30T08:47:48.441Z,31.80
2019-03-30T08:50:18.958Z,34.40
2019-03-30T08:52:49.500Z,35.00
2019-03-30T08:55:19.785Z,32.00
2019-03-30T08:57:50.320Z,31.40
2019-03-30T09:00:29.333Z,33.00
2019-03-30T09:02:59.612Z,32.20
2019-03-30T09:05:30.080Z,34.20
2019-03-30T09:08:00.580Z,33.00
2019-03-30T09:10:30.980Z,33.40
2019-03-30T09:13:01.464Z,32.20
2019-03-30T09:15:31.986Z,34.80
2019-03-30T09:18:02.496Z,36.20
2019-03-30T09:20:33.002Z,33.20
2019-03-30T09:23:03.525Z,32.20
2019-03-30T09:25:33.922Z,35.60
2019-03-30T09:28:04.289Z,33.00
2019-03-30T09:30:34.618Z,33.60
2019-03-30T09:33:04.855Z,32.00
2019-03-30T09:35:35.138Z,31.60
2019-03-30T09:38:06.328Z,32.80
2019-03-30T09:40:36.678Z,33.60
2019-03-30T09:43:08.521Z,33.80
2019-03-30T09:45:39.125Z,32.00
2019-03-30T09:48:09.677Z,33.00
2019-03-30T09:50:39.962Z,29.60
2019-03-30T09:53:10.354Z,31.20
2019-03-30T09:55:41.186Z,35.20
2019-03-30T09:58:11.717Z,34.00
2019-03-30T10:00:42.111Z,33.40
2019-03-30T10:03:12.390Z,32.00
2019-03-30T10:05:43.255Z,34.80
2019-03-30T10:08:13.983Z,32.60
2019-03-30T10:10:44.619Z,30.00
2019-03-30T10:13:15.635Z,33.20
2019-03-30T10:15:46.031Z,32.20
2019-03-30T10:18:17.305Z,33.20
2019-03-30T10:20:49.168Z,34.00
2019-03-30T10:23:19.654Z,32.00
2019-03-30T10:25:50.618Z,31.40
2019-03-30T10:28:21.310Z,30.00
2019-03-30T10:30:52.181Z,31.40
2019-03-30T10:33:22.785Z,27.80
2019-03-30T10:35:57.597Z,24.20
2019-03-30T10:38:28.587Z,25.80
2019-03-30T10:40:59.279Z,27.80
2019-03-30T10:43:30.011Z,31.20
2019-03-30T10:46:00.529Z,28.40
2019-03-30T10:48:30.896Z,29.60
2019-03-30T10:51:01.507Z,29.60
2019-03-30T10:53:31.959Z,28.40
2019-03-30T10:56:02.366Z,31.00
2019-03-30T10:58:32.854Z,30.00
2019-03-30T11:01:03.725Z,31.80
2019-03-30T11:03:34.015Z,30.40
2019-03-30T11:06:04.280Z,27.80
2019-03-30T11:08:34.464Z,31.40
2019-03-30T11:11:08.289Z,35.60
2019-03-30T11:13:39.610Z,32.40
2019-03-30T11:16:10.428Z,29.80
2019-03-30T11:18:40.732Z,27.00
2019-03-30T11:21:11.424Z,30.00
2019-03-30T11:23:41.776Z,29.20
2019-03-30T11:26:12.173Z,27.80
2019-03-30T11:28:42.695Z,25.80
2019-03-30T11:31:14.280Z,29.00
2019-03-30T11:33:44.644Z,28.00
2019-03-30T11:36:18.373Z,27.20
2019-03-30T11:38:47.537Z,27.60
2019-03-30T11:41:18.189Z,26.00
2019-03-30T11:43:49.323Z,26.00
2019-03-30T11:46:20.003Z,22.20
2019-03-30T11:48:50.216Z,28.40
2019-03-30T11:51:21.004Z,25.20
2019-03-30T11:53:51.485Z,25.20
2019-03-30T11:56:22.159Z,25.00
2019-03-30T11:58:52.375Z,27.20
2019-03-30T12:01:22.758Z,27.80
2019-03-30T12:03:52.872Z,22.80
2019-03-30T12:06:23.194Z,31.00
2019-03-30T12:08:54.535Z,26.60
2019-03-30T12:11:25.074Z,28.60
2019-03-30T12:13:56.073Z,31.00
2019-03-30T12:16:26.588Z,32.00
2019-03-30T12:18:57.095Z,29.00
2019-03-30T12:21:27.610Z,29.40
2019-03-30T12:23:58.099Z,33.20
2019-03-30T12:26:28.437Z,31.60
2019-03-30T12:28:59.323Z,35.00
2019-03-30T12:31:29.523Z,35.20
2019-03-30T12:33:59.909Z,33.80
2019-03-30T12:36:30.268Z,36.00
2019-03-30T12:39:00.473Z,34.40
2019-03-30T12:41:31.242Z,32.40
2019-03-30T12:44:02.011Z,36.20
2019-03-30T12:46:32.458Z,38.60
2019-03-30T12:49:02.861Z,38.40
2019-03-30T12:51:33.368Z,37.80
2019-03-30T12:54:03.707Z,40.20
2019-03-30T12:56:35.366Z,38.40
2019-03-30T12:59:06.030Z,37.80
2019-03-30T13:01:36.932Z,42.00
2019-03-30T13:04:07.417Z,39.20
2019-03-30T13:06:38.059Z,41.40
2019-03-30T13:09:08.878Z,40.20
2019-03-30T13:11:39.378Z,39.40
2019-03-30T13:14:09.662Z,38.00
2019-03-30T13:16:40.420Z,41.00
2019-03-30T13:19:11.274Z,44.20
2019-03-30T13:21:52.445Z,42.20
2019-03-30T13:24:14.606Z,43.80
2019-03-30T13:26:46.236Z,43.40
2019-03-30T13:29:16.908Z,45.80
2019-03-30T13:31:47.225Z,44.80
2019-03-30T13:34:18.239Z,45.40
2019-03-30T13:36:48.588Z,46.20
2019-03-30T13:39:19.277Z,47.60
2019-03-30T13:41:49.533Z,46.60
2019-03-30T13:44:20.053Z,50.00
2019-03-30T13:46:50.476Z,47.40
2019-03-30T13:49:20.906Z,46.00
2019-03-30T13:51:51.280Z,49.20
2019-03-30T13:54:21.693Z,46.80
2019-03-30T13:56:52.213Z,48.20
2019-03-30T13:59:22.783Z,48.60
2019-03-30T14:01:53.414Z,51.00
2019-03-30T14:04:24.960Z,48.00
2019-03-30T14:06:55.420Z,51.20
2019-03-30T14:09:25.925Z,48.00
2019-03-30T14:11:56.274Z,45.00
2019-03-30T14:14:26.577Z,46.80
2019-03-30T14:16:56.952Z,47.00
2019-03-30T14:19:27.403Z,47.60
2019-03-30T14:21:57.954Z,46.80
2019-03-30T14:24:28.923Z,49.40
2019-03-30T14:26:59.493Z,48.20
2019-03-30T14:29:29.966Z,43.20
2019-03-30T14:32:01.472Z,48.40
2019-03-30T14:34:32.607Z,46.60
2019-03-30T14:37:02.990Z,48.00
2019-03-30T14:39:33.411Z,47.80
2019-03-30T14:42:03.869Z,46.00
2019-03-30T14:44:34.319Z,47.60
2019-03-30T14:47:04.997Z,48.00
2019-03-30T14:49:35.359Z,48.00
2019-03-30T14:52:05.758Z,46.40
2019-03-30T14:54:36.299Z,43.60
2019-03-30T14:57:06.817Z,45.40
2019-03-30T14:59:37.539Z,52.40
2019-03-30T15:02:08.405Z,49.20
2019-03-30T15:04:38.985Z,50.20
2019-03-30T15:07:09.357Z,68.20
2019-03-30T15:09:39.785Z,43.40
2019-03-30T15:12:09.885Z,36.40
2019-03-30T15:14:40.339Z,33.20
2019-03-30T15:17:10.643Z,26.20
2019-03-30T15:19:41.005Z,27.40
2019-03-30T15:22:11.640Z,23.40
2019-03-30T15:24:42.180Z,25.00
2019-03-30T15:27:12.987Z,23.20
2019-03-30T15:29:45.567Z,18.80
2019-03-30T15:32:15.607Z,15.40
2019-03-30T15:34:45.919Z,15.00
2019-03-30T15:37:16.271Z,12.60
2019-03-30T15:39:46.643Z,13.00
2019-03-30T15:42:16.987Z,10.00
2019-03-30T15:44:47.385Z,8.60
2019-03-30T15:47:17.842Z,9.60
2019-03-30T15:49:48.254Z,9.80
2019-03-30T15:52:18.639Z,8.80
2019-03-30T15:54:49.305Z,7.40
2019-03-30T15:57:19.879Z,10.00
2019-03-30T15:59:50.326Z,8.40
2019-03-30T16:02:20.591Z,9.00
2019-03-30T16:04:51.901Z,7.00
2019-03-30T16:07:22.462Z,7.00
2019-03-30T16:09:52.869Z,10.00
2019-03-30T16:12:23.543Z,10.00
2019-03-30T16:14:54.134Z,8.00
2019-03-30T16:17:24.524Z,9.00
2019-03-30T16:19:55.091Z,10.40
2019-03-30T16:22:25.409Z,8.80
2019-03-30T16:24:56.108Z,9.00
2019-03-30T16:27:29.172Z,10.80
2019-03-30T16:29:58.946Z,10.80
2019-03-30T16:32:29.477Z,10.60
2019-03-30T16:35:00.514Z,11.80
2019-03-30T16:37:30.873Z,12.00
2019-03-30T16:40:01.484Z,15.00
2019-03-30T16:42:32.142Z,16.40
2019-03-30T16:45:02.842Z,16.00
2019-03-30T16:47:34.537Z,19.40
2019-03-30T16:50:06.428Z,17.60
2019-03-30T16:52:39.298Z,15.20
2019-03-30T16:55:09.013Z,15.60
2019-03-30T16:57:43.715Z,19.20
2019-03-30T17:00:12.197Z,23.20
2019-03-30T17:02:43.005Z,20.00
2019-03-30T17:05:13.757Z,18.60
2019-03-30T17:07:44.638Z,21.00
2019-03-30T17:10:15.161Z,19.00
2019-03-30T17:12:45.485Z,20.00
2019-03-30T17:15:15.882Z,19.60
2019-03-30T17:17:46.361Z,25.40
2019-03-30T17:20:16.860Z,23.40
2019-03-30T17:22:47.445Z,22.80
2019-03-30T17:25:18.155Z,24.20
2019-03-30T17:27:58.332Z,25.80
2019-03-30T17:30:20.652Z,25.00
2019-03-30T17:32:50.929Z,24.00
2019-03-30T17:35:21.557Z,23.40
2019-03-30T17:37:51.947Z,23.20
2019-03-30T17:40:22.424Z,27.20
2019-03-30T17:42:53.122Z,30.00
2019-03-30T17:45:23.711Z,26.80
2019-03-30T17:47:54.249Z,25.40
2019-03-30T17:50:24.747Z,25.20
2019-03-30T17:52:55.548Z,28.20
2019-03-30T17:55:33.521Z,25.40
2019-03-30T17:58:12.239Z,25.60
2019-03-30T18:00:32.241Z,24.40
2019-03-30T18:03:03.035Z,25.20
2019-03-30T18:05:33.780Z,29.80
2019-03-30T18:08:03.989Z,29.80
2019-03-30T18:10:34.492Z,26.00
2019-03-30T18:13:05.112Z,28.20
2019-03-30T18:15:35.784Z,27.40
2019-03-30T18:18:06.380Z,28.80
2019-03-30T18:20:37.071Z,30.60
2019-03-30T18:23:07.420Z,30.00
2019-03-30T18:25:38.330Z,25.40
2019-03-30T18:28:08.618Z,27.00
2019-03-30T18:30:39.908Z,30.00
2019-03-30T18:33:10.717Z,28.80
2019-03-30T18:35:41.785Z,25.80
2019-03-30T18:38:13.132Z,26.80
2019-03-30T18:40:43.922Z,24.60
2019-03-30T18:43:14.472Z,25.20
2019-03-30T18:45:44.781Z,32.80
2019-03-30T18:48:16.029Z,30.00
2019-03-30T18:50:46.900Z,28.60
2019-03-30T18:53:17.805Z,24.80
2019-03-30T18:55:48.232Z,26.00
2019-03-30T18:58:18.521Z,24.40
2019-03-30T19:00:49.050Z,27.80
2019-03-30T19:03:20.290Z,31.20
2019-03-30T19:05:51.021Z,28.20
2019-03-30T19:08:21.388Z,33.60
2019-03-30T19:10:51.649Z,29.60
2019-03-30T19:13:22.496Z,34.80
2019-03-30T19:15:52.980Z,34.40
2019-03-30T19:18:23.440Z,33.80
2019-03-30T19:20:53.949Z,38.20
2019-03-30T19:23:24.490Z,32.60
2019-03-30T19:25:55.189Z,24.00
2019-03-30T19:28:25.658Z,29.80
2019-03-30T19:30:56.034Z,33.00
2019-03-30T19:33:26.312Z,32.00
2019-03-30T19:35:57.009Z,32.40
2019-03-30T19:38:27.355Z,32.60
2019-03-30T19:40:58.890Z,31.80
2019-03-30T19:43:29.490Z,31.80
2019-03-30T19:45:59.848Z,34.20
2019-03-30T19:48:30.363Z,31.80
2019-03-30T19:51:00.790Z,30.80
2019-03-30T19:53:30.988Z,25.80
2019-03-30T19:56:01.503Z,26.80
2019-03-30T19:58:32.804Z,30.00
2019-03-30T20:01:03.327Z,30.60
2019-03-30T20:03:34.259Z,28.60
2019-03-30T20:06:05.082Z,25.40
2019-03-30T20:08:35.709Z,30.80
2019-03-30T20:11:06.262Z,25.20
2019-03-30T20:13:38.101Z,28.60
2019-03-30T20:16:08.759Z,23.80
2019-03-30T20:18:38.988Z,24.00
2019-03-30T20:21:09.466Z,27.00
2019-03-30T20:23:39.624Z,23.80
2019-03-30T20:26:10.119Z,24.40
2019-03-30T20:28:41.475Z,20.60
2019-03-30T20:31:11.910Z,18.20
2019-03-30T20:33:42.258Z,19.80
2019-03-30T20:36:12.992Z,26.00
2019-03-30T20:38:46.159Z,22.20
2019-03-30T20:41:16.536Z,19.80
2019-03-30T20:43:46.742Z,25.00
2019-03-30T20:46:17.212Z,23.20
2019-03-30T20:48:47.824Z,24.40
2019-03-30T20:51:18.906Z,24.80
2019-03-30T20:53:49.477Z,22.40
2019-03-30T20:56:19.925Z,22.20
2019-03-30T20:58:50.700Z,23.20
2019-03-30T21:01:21.531Z,25.00
2019-03-30T21:03:52.324Z,23.40
2019-03-30T21:06:22.746Z,24.60
2019-03-30T21:08:53.424Z,27.20
2019-03-30T21:11:23.777Z,18.40
2019-03-30T21:13:56.661Z,23.40
2019-03-30T21:16:26.037Z,20.40
2019-03-30T21:18:56.503Z,22.00
2019-03-30T21:21:27.193Z,22.20
2019-03-30T21:23:57.587Z,25.60
2019-03-30T21:26:28.693Z,22.20
2019-03-30T21:28:59.141Z,22.00
2019-03-30T21:31:29.795Z,23.20
2019-03-30T21:34:00.478Z,18.80
2019-03-30T21:36:30.670Z,25.60
2019-03-30T21:39:01.385Z,24.80
2019-03-30T21:41:33.670Z,22.00
2019-03-30T21:44:04.234Z,24.20
2019-03-30T21:46:34.667Z,19.00
2019-03-30T21:49:04.988Z,25.00
2019-03-30T21:51:35.498Z,19.20
2019-03-30T21:54:06.184Z,23.00
2019-03-30T21:56:36.383Z,21.20
2019-03-30T21:59:06.930Z,20.40
2019-03-30T22:01:37.320Z,22.60
2019-03-30T22:04:07.486Z,27.00
2019-03-30T22:06:37.920Z,28.40
2019-03-30T22:09:08.277Z,24.60
2019-03-30T22:11:38.589Z,25.60
2019-03-30T22:14:08.843Z,25.20
2019-03-30T22:16:39.345Z,26.40
2019-03-30T22:19:09.498Z,23.00
2019-03-30T22:21:40.013Z,24.60
2019-03-30T22:24:10.451Z,24.00
2019-03-30T22:26:41.088Z,27.00
2019-03-30T22:29:11.514Z,30.00
2019-03-30T22:31:42.043Z,28.00
2019-03-30T22:34:13.379Z,27.40
2019-03-30T22:36:43.523Z,27.80
2019-03-30T22:39:14.036Z,27.20
2019-03-30T22:41:44.287Z,32.00
2019-03-30T22:44:14.788Z,31.60
2019-03-30T22:46:45.161Z,31.00
2019-03-30T22:49:16.215Z,32.40
2019-03-30T22:51:46.631Z,32.80
2019-03-30T22:54:17.551Z,33.60
2019-03-30T22:56:48.141Z,34.60
2019-03-30T22:59:18.785Z,33.20
2019-03-30T23:01:49.218Z,32.00
2019-03-30T23:04:19.641Z,28.00
2019-03-30T23:06:50.133Z,33.60
2019-03-30T23:09:20.839Z,33.00
2019-03-30T23:11:51.168Z,34.00
2019-03-30T23:14:21.429Z,37.80
2019-03-30T23:16:52.046Z,36.80
2019-03-30T23:19:22.727Z,33.60
2019-03-30T23:21:53.057Z,37.60
2019-03-30T23:24:23.702Z,37.60
2019-03-30T23:26:53.905Z,36.60
2019-03-30T23:29:24.327Z,34.60
2019-03-30T23:31:54.800Z,34.80
2019-03-30T23:34:25.202Z,36.40
2019-03-30T23:36:55.481Z,37.00
2019-03-30T23:39:25.933Z,37.00
2019-03-30T23:41:56.811Z,35.80
2019-03-30T23:44:27.231Z,36.80
2019-03-30T23:46:57.735Z,34.60
2019-03-30T23:49:27.989Z,37.60
2019-03-30T23:51:58.738Z,38.20
2019-03-30T23:54:29.092Z,41.80
2019-03-30T23:56:59.447Z,41.80
2019-03-30T23:59:29.645Z,38.00
